sensor_id;sensor_type;location;lat;lon;timestamp;temperature;humidity
48579;DHT22;34357;51.948;6.132;2022-09-09T00:09:22;14.90;91.50
48579;DHT22;34357;51.948;6.132;2022-09-09T00:12:00;14.90;91.60
48579;DHT22;34357;51.948;6.132;2022-09-09T00:17:25;14.90;91.30
48579;DHT22;34357;51.948;6.132;2022-09-09T00:22:30;14.80;91.10
48579;DHT22;34357;51.948;6.132;2022-09-09T00:25:11;14.80;91.00
48579;DHT22;34357;51.948;6.132;2022-09-09T00:27:49;14.70;91.10
48579;DHT22;34357;51.948;6.132;2022-09-09T00:30:19;14.80;91.10
48579;DHT22;34357;51.948;6.132;2022-09-09T00:33:10;14.90;91.10
48579;DHT22;34357;51.948;6.132;2022-09-09T00:35:45;14.80;91.20
48579;DHT22;34357;51.948;6.132;2022-09-09T00:38:35;14.90;91.00
48579;DHT22;34357;51.948;6.132;2022-09-09T00:44:02;14.80;90.60
48579;DHT22;34357;51.948;6.132;2022-09-09T00:49:35;14.90;90.70
48579;DHT22;34357;51.948;6.132;2022-09-09T00:52:25;14.90;90.50
48579;DHT22;34357;51.948;6.132;2022-09-09T00:57:38;14.80;90.00
48579;DHT22;34357;51.948;6.132;2022-09-09T01:00:25;14.80;90.20
48579;DHT22;34357;51.948;6.132;2022-09-09T01:05:58;14.70;90.20
48579;DHT22;34357;51.948;6.132;2022-09-09T01:12:01;14.80;89.90
48579;DHT22;34357;51.948;6.132;2022-09-09T01:17:34;14.60;90.10
48579;DHT22;34357;51.948;6.132;2022-09-09T01:20:25;14.50;90.30
48579;DHT22;34357;51.948;6.132;2022-09-09T01:28:35;14.50;89.80
48579;DHT22;34357;51.948;6.132;2022-09-09T01:31:07;14.40;90.00
48579;DHT22;34357;51.948;6.132;2022-09-09T01:33:41;14.40;89.90
48579;DHT22;34357;51.948;6.132;2022-09-09T01:36:11;14.40;89.90
48579;DHT22;34357;51.948;6.132;2022-09-09T01:38:46;14.40;90.00
48579;DHT22;34357;51.948;6.132;2022-09-09T01:41:12;14.30;90.30
48579;DHT22;34357;51.948;6.132;2022-09-09T01:43:47;14.30;90.20
48579;DHT22;34357;51.948;6.132;2022-09-09T01:46:13;14.20;90.30
48579;DHT22;34357;51.948;6.132;2022-09-09T01:48:41;14.20;90.40
48579;DHT22;34357;51.948;6.132;2022-09-09T01:51:09;14.20;90.50
48579;DHT22;34357;51.948;6.132;2022-09-09T01:53:36;14.20;90.70
48579;DHT22;34357;51.948;6.132;2022-09-09T01:56:11;14.20;90.80
48579;DHT22;34357;51.948;6.132;2022-09-09T01:59:11;14.20;90.90
48579;DHT22;34357;51.948;6.132;2022-09-09T02:04:41;14.00;91.00
48579;DHT22;34357;51.948;6.132;2022-09-09T02:10:10;14.00;90.90
48579;DHT22;34357;51.948;6.132;2022-09-09T02:12:44;13.90;91.00
48579;DHT22;34357;51.948;6.132;2022-09-09T02:15:26;13.90;91.10
48579;DHT22;34357;51.948;6.132;2022-09-09T02:17:57;13.90;91.20
48579;DHT22;34357;51.948;6.132;2022-09-09T02:20:25;13.90;91.20
48579;DHT22;34357;51.948;6.132;2022-09-09T02:22:59;13.90;91.40
48579;DHT22;34357;51.948;6.132;2022-09-09T02:25:28;13.90;91.30
48579;DHT22;34357;51.948;6.132;2022-09-09T02:28:02;13.90;91.20
48579;DHT22;34357;51.948;6.132;2022-09-09T02:30:29;13.90;91.20
48579;DHT22;34357;51.948;6.132;2022-09-09T02:33:00;13.90;91.20
48579;DHT22;34357;51.948;6.132;2022-09-09T02:35:47;13.90;91.10
48579;DHT22;34357;51.948;6.132;2022-09-09T02:38:17;13.90;91.10
48579;DHT22;34357;51.948;6.132;2022-09-09T02:40:55;13.90;91.00
48579;DHT22;34357;51.948;6.132;2022-09-09T02:43:21;13.90;91.00
48579;DHT22;34357;51.948;6.132;2022-09-09T02:45:59;13.90;91.10
48579;DHT22;34357;51.948;6.132;2022-09-09T02:48:30;13.90;91.10
48579;DHT22;34357;51.948;6.132;2022-09-09T02:51:32;13.90;91.10
48579;DHT22;34357;51.948;6.132;2022-09-09T02:54:28;13.90;91.20
48579;DHT22;34357;51.948;6.132;2022-09-09T02:57:08;13.90;91.20
48579;DHT22;34357;51.948;6.132;2022-09-09T02:59:38;13.90;91.30
48579;DHT22;34357;51.948;6.132;2022-09-09T03:02:04;13.80;91.30
48579;DHT22;34357;51.948;6.132;2022-09-09T03:04:31;13.80;91.40
48579;DHT22;34357;51.948;6.132;2022-09-09T03:06:58;13.80;91.40
48579;DHT22;34357;51.948;6.132;2022-09-09T03:09:24;13.80;91.50
48579;DHT22;34357;51.948;6.132;2022-09-09T03:11:52;13.80;91.60
48579;DHT22;34357;51.948;6.132;2022-09-09T03:14:19;13.80;91.70
48579;DHT22;34357;51.948;6.132;2022-09-09T03:16:47;13.80;91.70
48579;DHT22;34357;51.948;6.132;2022-09-09T03:19:14;13.70;91.80
48579;DHT22;34357;51.948;6.132;2022-09-09T03:21:40;13.80;92.00
48579;DHT22;34357;51.948;6.132;2022-09-09T03:24:06;13.70;92.00
48579;DHT22;34357;51.948;6.132;2022-09-09T03:26:32;13.70;92.10
48579;DHT22;34357;51.948;6.132;2022-09-09T03:28:59;13.70;92.20
48579;DHT22;34357;51.948;6.132;2022-09-09T03:31:26;13.70;92.20
48579;DHT22;34357;51.948;6.132;2022-09-09T03:33:57;13.70;92.30
48579;DHT22;34357;51.948;6.132;2022-09-09T03:36:26;13.80;92.30
48579;DHT22;34357;51.948;6.132;2022-09-09T03:38:52;13.80;92.10
48579;DHT22;34357;51.948;6.132;2022-09-09T03:41:22;13.80;92.10
48579;DHT22;34357;51.948;6.132;2022-09-09T03:43:50;13.80;92.20
48579;DHT22;34357;51.948;6.132;2022-09-09T03:46:18;13.80;92.20
48579;DHT22;34357;51.948;6.132;2022-09-09T03:48:43;13.80;92.20
48579;DHT22;34357;51.948;6.132;2022-09-09T03:51:09;13.90;92.20
48579;DHT22;34357;51.948;6.132;2022-09-09T03:53:36;13.80;92.30
48579;DHT22;34357;51.948;6.132;2022-09-09T03:56:04;13.90;92.30
48579;DHT22;34357;51.948;6.132;2022-09-09T03:58:35;13.80;92.30
48579;DHT22;34357;51.948;6.132;2022-09-09T04:01:08;13.80;92.40
48579;DHT22;34357;51.948;6.132;2022-09-09T04:03:35;13.80;92.50
48579;DHT22;34357;51.948;6.132;2022-09-09T04:06:02;13.90;92.60
48579;DHT22;34357;51.948;6.132;2022-09-09T04:08:30;13.90;92.70
48579;DHT22;34357;51.948;6.132;2022-09-09T04:11:00;13.90;92.70
48579;DHT22;34357;51.948;6.132;2022-09-09T04:13:28;13.90;92.80
48579;DHT22;34357;51.948;6.132;2022-09-09T04:15:58;14.00;92.80
48579;DHT22;34357;51.948;6.132;2022-09-09T04:18:24;14.00;92.70
48579;DHT22;34357;51.948;6.132;2022-09-09T04:20:52;14.00;92.70
48579;DHT22;34357;51.948;6.132;2022-09-09T04:23:21;14.10;92.70
48579;DHT22;34357;51.948;6.132;2022-09-09T04:25:48;14.10;92.60
48579;DHT22;34357;51.948;6.132;2022-09-09T04:28:16;14.10;92.50
48579;DHT22;34357;51.948;6.132;2022-09-09T04:30:43;14.20;92.50
48579;DHT22;34357;51.948;6.132;2022-09-09T04:33:09;14.20;92.50
48579;DHT22;34357;51.948;6.132;2022-09-09T04:35:36;14.20;92.50
48579;DHT22;34357;51.948;6.132;2022-09-09T04:38:03;14.30;92.40
48579;DHT22;34357;51.948;6.132;2022-09-09T04:40:31;14.20;92.40
48579;DHT22;34357;51.948;6.132;2022-09-09T04:43:02;14.30;92.50
48579;DHT22;34357;51.948;6.132;2022-09-09T04:45:31;14.40;92.40
48579;DHT22;34357;51.948;6.132;2022-09-09T04:47:58;14.30;92.50
48579;DHT22;34357;51.948;6.132;2022-09-09T04:50:24;14.30;92.50
48579;DHT22;34357;51.948;6.132;2022-09-09T04:53:00;14.40;92.50
48579;DHT22;34357;51.948;6.132;2022-09-09T04:55:27;14.40;92.60
48579;DHT22;34357;51.948;6.132;2022-09-09T04:57:53;14.40;92.60
48579;DHT22;34357;51.948;6.132;2022-09-09T05:00:20;14.50;92.60
48579;DHT22;34357;51.948;6.132;2022-09-09T05:02:46;14.50;92.50
48579;DHT22;34357;51.948;6.132;2022-09-09T05:05:13;14.60;92.40
48579;DHT22;34357;51.948;6.132;2022-09-09T05:07:40;14.60;92.40
48579;DHT22;34357;51.948;6.132;2022-09-09T05:10:06;14.70;92.30
48579;DHT22;34357;51.948;6.132;2022-09-09T05:12:33;14.70;92.20
48579;DHT22;34357;51.948;6.132;2022-09-09T05:14:58;14.70;92.20
48579;DHT22;34357;51.948;6.132;2022-09-09T05:17:24;14.70;92.10
48579;DHT22;34357;51.948;6.132;2022-09-09T05:19:50;14.70;92.10
48579;DHT22;34357;51.948;6.132;2022-09-09T05:22:19;14.70;92.00
48579;DHT22;34357;51.948;6.132;2022-09-09T05:24:47;14.80;92.00
48579;DHT22;34357;51.948;6.132;2022-09-09T05:27:13;14.70;92.00
48579;DHT22;34357;51.948;6.132;2022-09-09T05:29:40;14.80;92.00
48579;DHT22;34357;51.948;6.132;2022-09-09T05:32:09;14.80;91.90
48579;DHT22;34357;51.948;6.132;2022-09-09T05:34:35;14.80;91.90
48579;DHT22;34357;51.948;6.132;2022-09-09T05:37:03;14.80;91.80
48579;DHT22;34357;51.948;6.132;2022-09-09T05:39:30;14.90;91.90
48579;DHT22;34357;51.948;6.132;2022-09-09T05:41:58;14.90;91.90
48579;DHT22;34357;51.948;6.132;2022-09-09T05:44:24;14.90;91.80
48579;DHT22;34357;51.948;6.132;2022-09-09T05:46:53;15.00;91.90
48579;DHT22;34357;51.948;6.132;2022-09-09T05:49:21;15.00;91.60
48579;DHT22;34357;51.948;6.132;2022-09-09T05:51:47;15.10;91.60
48579;DHT22;34357;51.948;6.132;2022-09-09T05:54:16;15.00;91.30
48579;DHT22;34357;51.948;6.132;2022-09-09T05:56:45;15.10;91.30
48579;DHT22;34357;51.948;6.132;2022-09-09T05:59:10;15.00;91.20
48579;DHT22;34357;51.948;6.132;2022-09-09T06:01:38;15.00;91.20
48579;DHT22;34357;51.948;6.132;2022-09-09T06:04:10;15.00;91.30
48579;DHT22;34357;51.948;6.132;2022-09-09T06:06:38;15.00;91.30
48579;DHT22;34357;51.948;6.132;2022-09-09T06:09:12;15.30;91.20
48579;DHT22;34357;51.948;6.132;2022-09-09T06:11:41;15.40;90.60
48579;DHT22;34357;51.948;6.132;2022-09-09T06:14:08;15.50;90.20
48579;DHT22;34357;51.948;6.132;2022-09-09T06:16:34;15.60;89.80
48579;DHT22;34357;51.948;6.132;2022-09-09T06:19:01;15.60;89.60
48579;DHT22;34357;51.948;6.132;2022-09-09T06:21:31;15.60;89.80
48579;DHT22;34357;51.948;6.132;2022-09-09T06:23:59;15.90;90.00
48579;DHT22;34357;51.948;6.132;2022-09-09T06:26:36;16.20;89.20
48579;DHT22;34357;51.948;6.132;2022-09-09T06:29:04;16.30;88.10
48579;DHT22;34357;51.948;6.132;2022-09-09T06:31:32;16.40;87.30
48579;DHT22;34357;51.948;6.132;2022-09-09T06:34:06;16.30;87.70
48579;DHT22;34357;51.948;6.132;2022-09-09T06:36:35;16.30;87.70
48579;DHT22;34357;51.948;6.132;2022-09-09T06:39:02;16.50;87.90
48579;DHT22;34357;51.948;6.132;2022-09-09T06:41:31;16.90;87.20
48579;DHT22;34357;51.948;6.132;2022-09-09T06:43:59;17.00;85.90
48579;DHT22;34357;51.948;6.132;2022-09-09T06:46:41;16.90;85.40
48579;DHT22;34357;51.948;6.132;2022-09-09T06:49:08;16.60;86.20
48579;DHT22;34357;51.948;6.132;2022-09-09T06:51:37;16.50;86.60
48579;DHT22;34357;51.948;6.132;2022-09-09T06:54:09;16.40;86.80
48579;DHT22;34357;51.948;6.132;2022-09-09T06:56:37;16.40;87.10
48579;DHT22;34357;51.948;6.132;2022-09-09T06:59:09;16.40;87.20
48579;DHT22;34357;51.948;6.132;2022-09-09T07:01:37;16.20;87.30
48579;DHT22;34357;51.948;6.132;2022-09-09T07:04:07;16.20;87.60
48579;DHT22;34357;51.948;6.132;2022-09-09T07:06:37;16.30;87.60
48579;DHT22;34357;51.948;6.132;2022-09-09T07:09:09;16.40;87.40
48579;DHT22;34357;51.948;6.132;2022-09-09T07:11:41;16.50;87.60
48579;DHT22;34357;51.948;6.132;2022-09-09T07:14:08;16.60;87.20
48579;DHT22;34357;51.948;6.132;2022-09-09T07:16:34;16.60;86.80
48579;DHT22;34357;51.948;6.132;2022-09-09T07:19:03;16.70;86.70
48579;DHT22;34357;51.948;6.132;2022-09-09T07:21:30;16.80;86.10
48579;DHT22;34357;51.948;6.132;2022-09-09T07:23:57;16.80;86.50
48579;DHT22;34357;51.948;6.132;2022-09-09T07:26:26;16.80;86.40
48579;DHT22;34357;51.948;6.132;2022-09-09T07:28:53;16.70;86.50
48579;DHT22;34357;51.948;6.132;2022-09-09T07:31:26;16.80;86.20
48579;DHT22;34357;51.948;6.132;2022-09-09T07:33:53;16.90;86.10
48579;DHT22;34357;51.948;6.132;2022-09-09T07:36:25;17.00;85.80
48579;DHT22;34357;51.948;6.132;2022-09-09T07:38:55;17.00;85.10
48579;DHT22;34357;51.948;6.132;2022-09-09T07:41:25;17.10;84.80
48579;DHT22;34357;51.948;6.132;2022-09-09T07:43:52;17.00;84.90
48579;DHT22;34357;51.948;6.132;2022-09-09T07:46:21;17.00;84.40
48579;DHT22;34357;51.948;6.132;2022-09-09T07:48:57;17.10;84.30
48579;DHT22;34357;51.948;6.132;2022-09-09T07:51:33;17.00;84.50
48579;DHT22;34357;51.948;6.132;2022-09-09T07:54:02;17.10;84.30
48579;DHT22;34357;51.948;6.132;2022-09-09T07:56:30;17.10;83.70
48579;DHT22;34357;51.948;6.132;2022-09-09T07:58:58;17.20;83.40
48579;DHT22;34357;51.948;6.132;2022-09-09T08:01:36;17.30;83.10
48579;DHT22;34357;51.948;6.132;2022-09-09T08:04:10;17.40;83.30
48579;DHT22;34357;51.948;6.132;2022-09-09T08:06:47;17.40;82.10
48579;DHT22;34357;51.948;6.132;2022-09-09T08:09:14;17.70;81.20
48579;DHT22;34357;51.948;6.132;2022-09-09T08:11:42;17.80;80.90
48579;DHT22;34357;51.948;6.132;2022-09-09T08:14:09;18.00;80.30
48579;DHT22;34357;51.948;6.132;2022-09-09T08:16:38;18.10;80.90
48579;DHT22;34357;51.948;6.132;2022-09-09T08:19:05;18.10;79.40
48579;DHT22;34357;51.948;6.132;2022-09-09T08:21:33;18.10;79.50
48579;DHT22;34357;51.948;6.132;2022-09-09T08:24:02;18.40;79.70
48579;DHT22;34357;51.948;6.132;2022-09-09T08:26:31;18.20;78.50
48579;DHT22;34357;51.948;6.132;2022-09-09T08:28:58;18.00;79.10
48579;DHT22;34357;51.948;6.132;2022-09-09T08:31:30;18.20;79.10
48579;DHT22;34357;51.948;6.132;2022-09-09T08:33:57;18.10;78.00
48579;DHT22;34357;51.948;6.132;2022-09-09T08:36:26;18.00;78.40
48579;DHT22;34357;51.948;6.132;2022-09-09T08:38:54;17.70;78.60
48579;DHT22;34357;51.948;6.132;2022-09-09T08:41:41;17.70;78.90
48579;DHT22;34357;51.948;6.132;2022-09-09T08:52:22;17.90;79.30
48579;DHT22;34357;51.948;6.132;2022-09-09T08:54:49;17.90;79.00
48579;DHT22;34357;51.948;6.132;2022-09-09T08:57:25;17.90;79.10
48579;DHT22;34357;51.948;6.132;2022-09-09T08:59:53;18.00;77.90
48579;DHT22;34357;51.948;6.132;2022-09-09T09:02:25;17.90;79.10
48579;DHT22;34357;51.948;6.132;2022-09-09T09:04:58;17.90;78.70
48579;DHT22;34357;51.948;6.132;2022-09-09T09:10:31;17.90;78.90
48579;DHT22;34357;51.948;6.132;2022-09-09T09:13:01;17.80;78.90
48579;DHT22;34357;51.948;6.132;2022-09-09T09:15:38;17.80;79.20
48579;DHT22;34357;51.948;6.132;2022-09-09T09:18:05;17.80;79.00
48579;DHT22;34357;51.948;6.132;2022-09-09T09:20:58;17.90;78.90
48579;DHT22;34357;51.948;6.132;2022-09-09T09:23:36;17.90;78.80
48579;DHT22;34357;51.948;6.132;2022-09-09T09:26:07;17.90;78.30
48579;DHT22;34357;51.948;6.132;2022-09-09T09:28:36;17.90;78.60
48579;DHT22;34357;51.948;6.132;2022-09-09T09:31:12;18.20;78.60
48579;DHT22;34357;51.948;6.132;2022-09-09T09:33:53;18.40;77.60
48579;DHT22;34357;51.948;6.132;2022-09-09T09:36:45;18.60;76.30
48579;DHT22;34357;51.948;6.132;2022-09-09T09:39:25;18.80;75.80
48579;DHT22;34357;51.948;6.132;2022-09-09T09:41:54;19.10;75.00
48579;DHT22;34357;51.948;6.132;2022-09-09T09:44:30;18.90;74.80
48579;DHT22;34357;51.948;6.132;2022-09-09T09:49:50;18.50;73.10
48579;DHT22;34357;51.948;6.132;2022-09-09T09:52:24;18.50;73.40
48579;DHT22;34357;51.948;6.132;2022-09-09T09:54:52;18.60;73.80
48579;DHT22;34357;51.948;6.132;2022-09-09T09:57:26;18.90;73.80
48579;DHT22;34357;51.948;6.132;2022-09-09T10:00:14;19.10;72.70
48579;DHT22;34357;51.948;6.132;2022-09-09T10:02:47;19.20;73.40
48579;DHT22;34357;51.948;6.132;2022-09-09T10:05:31;19.30;73.00
48579;DHT22;34357;51.948;6.132;2022-09-09T10:08:11;19.30;71.70
48579;DHT22;34357;51.948;6.132;2022-09-09T10:10:59;19.50;71.40
48579;DHT22;34357;51.948;6.132;2022-09-09T10:13:42;19.30;71.50
48579;DHT22;34357;51.948;6.132;2022-09-09T10:16:33;19.40;71.70
48579;DHT22;34357;51.948;6.132;2022-09-09T10:19:09;19.40;73.00
48579;DHT22;34357;51.948;6.132;2022-09-09T10:22:00;19.20;70.90
48579;DHT22;34357;51.948;6.132;2022-09-09T10:24:49;18.90;71.40
48579;DHT22;34357;51.948;6.132;2022-09-09T10:30:23;18.60;72.00
48579;DHT22;34357;51.948;6.132;2022-09-09T10:35:57;18.50;73.30
48579;DHT22;34357;51.948;6.132;2022-09-09T10:38:29;18.60;74.00
48579;DHT22;34357;51.948;6.132;2022-09-09T10:46:23;18.70;74.30
48579;DHT22;34357;51.948;6.132;2022-09-09T10:48:56;18.40;73.50
48579;DHT22;34357;51.948;6.132;2022-09-09T10:51:39;18.40;74.10
48579;DHT22;34357;51.948;6.132;2022-09-09T10:54:55;18.40;73.30
48579;DHT22;34357;51.948;6.132;2022-09-09T10:57:13;18.40;74.00
48579;DHT22;34357;51.948;6.132;2022-09-09T10:59:48;18.50;74.40
48579;DHT22;34357;51.948;6.132;2022-09-09T11:02:27;18.40;73.80
48579;DHT22;34357;51.948;6.132;2022-09-09T11:07:41;18.50;74.10
48579;DHT22;34357;51.948;6.132;2022-09-09T11:10:37;18.70;72.60
48579;DHT22;34357;51.948;6.132;2022-09-09T11:13:17;18.90;72.50
48579;DHT22;34357;51.948;6.132;2022-09-09T11:15:54;19.20;72.60
48579;DHT22;34357;51.948;6.132;2022-09-09T11:18:24;19.20;70.90
48579;DHT22;34357;51.948;6.132;2022-09-09T11:20:59;19.20;71.50
48579;DHT22;34357;51.948;6.132;2022-09-09T11:23:39;19.20;72.00
48579;DHT22;34357;51.948;6.132;2022-09-09T11:26:07;19.00;71.40
48579;DHT22;34357;51.948;6.132;2022-09-09T11:32:04;18.70;73.40
48579;DHT22;34357;51.948;6.132;2022-09-09T11:35:06;18.50;75.00
48579;DHT22;34357;51.948;6.132;2022-09-09T11:37:40;18.20;76.50
48579;DHT22;34357;51.948;6.132;2022-09-09T11:40:25;18.20;77.10
48579;DHT22;34357;51.948;6.132;2022-09-09T11:43:04;18.30;77.00
48579;DHT22;34357;51.948;6.132;2022-09-09T11:45:32;18.30;77.00
48579;DHT22;34357;51.948;6.132;2022-09-09T11:48:02;18.20;76.20
48579;DHT22;34357;51.948;6.132;2022-09-09T11:50:30;18.20;76.70
48579;DHT22;34357;51.948;6.132;2022-09-09T11:53:22;18.10;78.80
48579;DHT22;34357;51.948;6.132;2022-09-09T11:56:00;17.50;82.40
48579;DHT22;34357;51.948;6.132;2022-09-09T11:58:27;17.40;84.80
48579;DHT22;34357;51.948;6.132;2022-09-09T12:00:58;17.60;84.90
48579;DHT22;34357;51.948;6.132;2022-09-09T12:05:59;17.80;84.10
48579;DHT22;34357;51.948;6.132;2022-09-09T12:08:27;17.80;84.20
48579;DHT22;34357;51.948;6.132;2022-09-09T12:10:57;17.70;84.10
48579;DHT22;34357;51.948;6.132;2022-09-09T12:13:24;17.80;84.60
48579;DHT22;34357;51.948;6.132;2022-09-09T12:15:56;17.70;83.70
48579;DHT22;34357;51.948;6.132;2022-09-09T12:18:36;17.90;85.30
48579;DHT22;34357;51.948;6.132;2022-09-09T12:23:40;17.90;83.90
48579;DHT22;34357;51.948;6.132;2022-09-09T12:31:51;17.90;82.50
48579;DHT22;34357;51.948;6.132;2022-09-09T12:37:33;17.70;83.90
48579;DHT22;34357;51.948;6.132;2022-09-09T12:40:05;17.60;83.30
48579;DHT22;34357;51.948;6.132;2022-09-09T12:42:32;17.60;84.70
48579;DHT22;34357;51.948;6.132;2022-09-09T12:45:03;17.60;85.50
48579;DHT22;34357;51.948;6.132;2022-09-09T12:47:46;17.60;84.80
48579;DHT22;34357;51.948;6.132;2022-09-09T12:52:43;17.60;84.80
48579;DHT22;34357;51.948;6.132;2022-09-09T12:55:20;17.70;85.30
48579;DHT22;34357;51.948;6.132;2022-09-09T12:57:48;17.70;84.40
48579;DHT22;34357;51.948;6.132;2022-09-09T13:00:22;18.10;84.40
48579;DHT22;34357;51.948;6.132;2022-09-09T13:02:53;18.40;83.30
48579;DHT22;34357;51.948;6.132;2022-09-09T13:05:27;18.30;83.20
48579;DHT22;34357;51.948;6.132;2022-09-09T13:08:09;18.60;82.90
48579;DHT22;34357;51.948;6.132;2022-09-09T13:10:43;18.40;83.10
48579;DHT22;34357;51.948;6.132;2022-09-09T13:13:17;18.30;82.10
48579;DHT22;34357;51.948;6.132;2022-09-09T13:15:53;18.20;82.40
48579;DHT22;34357;51.948;6.132;2022-09-09T13:18:23;18.10;81.90
48579;DHT22;34357;51.948;6.132;2022-09-09T13:20:50;18.10;82.40
48579;DHT22;34357;51.948;6.132;2022-09-09T13:23:18;18.50;82.40
48579;DHT22;34357;51.948;6.132;2022-09-09T13:25:56;18.70;80.90
48579;DHT22;34357;51.948;6.132;2022-09-09T13:28:24;18.90;80.60
48579;DHT22;34357;51.948;6.132;2022-09-09T13:31:00;18.80;80.10
48579;DHT22;34357;51.948;6.132;2022-09-09T13:33:33;18.70;79.20
48579;DHT22;34357;51.948;6.132;2022-09-09T13:36:08;18.60;80.10
48579;DHT22;34357;51.948;6.132;2022-09-09T13:41:33;18.90;79.80
48579;DHT22;34357;51.948;6.132;2022-09-09T13:44:01;18.70;79.60
48579;DHT22;34357;51.948;6.132;2022-09-09T13:46:37;18.50;80.00
48579;DHT22;34357;51.948;6.132;2022-09-09T13:51:46;18.70;79.20
48579;DHT22;34357;51.948;6.132;2022-09-09T13:54:17;18.80;78.80
48579;DHT22;34357;51.948;6.132;2022-09-09T13:56:44;18.90;79.80
48579;DHT22;34357;51.948;6.132;2022-09-09T13:59:12;19.10;78.50
48579;DHT22;34357;51.948;6.132;2022-09-09T14:01:38;19.10;78.50
48579;DHT22;34357;51.948;6.132;2022-09-09T14:04:04;19.40;78.50
48579;DHT22;34357;51.948;6.132;2022-09-09T14:06:32;19.20;77.70
48579;DHT22;34357;51.948;6.132;2022-09-09T14:08:58;19.10;78.20
48579;DHT22;34357;51.948;6.132;2022-09-09T14:11:24;18.70;79.20
48579;DHT22;34357;51.948;6.132;2022-09-09T14:13:50;18.20;82.20
48579;DHT22;34357;51.948;6.132;2022-09-09T14:16:17;17.70;84.70
48579;DHT22;34357;51.948;6.132;2022-09-09T14:18:44;17.60;86.30
48579;DHT22;34357;51.948;6.132;2022-09-09T14:21:10;17.60;86.60
48579;DHT22;34357;51.948;6.132;2022-09-09T14:23:36;17.50;87.70
48579;DHT22;34357;51.948;6.132;2022-09-09T14:26:04;17.40;88.40
48579;DHT22;34357;51.948;6.132;2022-09-09T14:28:30;17.40;89.10
48579;DHT22;34357;51.948;6.132;2022-09-09T14:31:03;17.30;88.90
48579;DHT22;34357;51.948;6.132;2022-09-09T14:33:29;17.40;89.90
48579;DHT22;34357;51.948;6.132;2022-09-09T14:36:03;17.40;90.10
48579;DHT22;34357;51.948;6.132;2022-09-09T14:38:30;17.40;89.90
48579;DHT22;34357;51.948;6.132;2022-09-09T14:40:57;17.50;89.80
48579;DHT22;34357;51.948;6.132;2022-09-09T14:43:24;17.60;89.40
48579;DHT22;34357;51.948;6.132;2022-09-09T14:45:50;17.70;89.20
48579;DHT22;34357;51.948;6.132;2022-09-09T14:48:17;17.60;89.00
48579;DHT22;34357;51.948;6.132;2022-09-09T14:50:43;17.90;88.80
48579;DHT22;34357;51.948;6.132;2022-09-09T14:53:09;18.00;88.70
48579;DHT22;34357;51.948;6.132;2022-09-09T14:55:35;18.20;88.90
48579;DHT22;34357;51.948;6.132;2022-09-09T14:58:01;18.10;87.90
48579;DHT22;34357;51.948;6.132;2022-09-09T15:00:27;18.00;86.90
48579;DHT22;34357;51.948;6.132;2022-09-09T15:02:54;18.20;87.30
48579;DHT22;34357;51.948;6.132;2022-09-09T15:05:20;18.20;86.70
48579;DHT22;34357;51.948;6.132;2022-09-09T15:07:45;18.40;86.40
48579;DHT22;34357;51.948;6.132;2022-09-09T15:10:11;18.50;85.50
48579;DHT22;34357;51.948;6.132;2022-09-09T15:12:37;18.40;85.40
48579;DHT22;34357;51.948;6.132;2022-09-09T15:15:04;18.50;85.90
48579;DHT22;34357;51.948;6.132;2022-09-09T15:17:33;18.50;84.70
48579;DHT22;34357;51.948;6.132;2022-09-09T15:19:59;18.60;86.00
48579;DHT22;34357;51.948;6.132;2022-09-09T15:22:24;18.80;85.70
48579;DHT22;34357;51.948;6.132;2022-09-09T15:24:50;18.70;85.60
48579;DHT22;34357;51.948;6.132;2022-09-09T15:27:16;18.60;84.60
48579;DHT22;34357;51.948;6.132;2022-09-09T15:29:42;18.60;84.90
48579;DHT22;34357;51.948;6.132;2022-09-09T15:32:08;18.70;85.00
48579;DHT22;34357;51.948;6.132;2022-09-09T15:34:34;18.70;85.10
48579;DHT22;34357;51.948;6.132;2022-09-09T15:37:00;18.70;83.80
48579;DHT22;34357;51.948;6.132;2022-09-09T15:39:26;18.60;82.10
48579;DHT22;34357;51.948;6.132;2022-09-09T15:41:51;18.60;83.10
48579;DHT22;34357;51.948;6.132;2022-09-09T15:44:18;18.70;82.60
48579;DHT22;34357;51.948;6.132;2022-09-09T15:46:52;18.70;81.10
48579;DHT22;34357;51.948;6.132;2022-09-09T15:49:20;18.70;82.70
48579;DHT22;34357;51.948;6.132;2022-09-09T15:51:55;18.60;81.80
48579;DHT22;34357;51.948;6.132;2022-09-09T15:54:23;18.60;82.30
48579;DHT22;34357;51.948;6.132;2022-09-09T15:56:52;18.50;82.10
48579;DHT22;34357;51.948;6.132;2022-09-09T15:59:20;18.60;83.00
48579;DHT22;34357;51.948;6.132;2022-09-09T16:01:45;18.50;81.70
48579;DHT22;34357;51.948;6.132;2022-09-09T16:04:11;18.60;81.90
48579;DHT22;34357;51.948;6.132;2022-09-09T16:06:37;18.70;82.60
48579;DHT22;34357;51.948;6.132;2022-09-09T16:09:05;18.70;82.90
48579;DHT22;34357;51.948;6.132;2022-09-09T16:11:34;18.60;83.00
48579;DHT22;34357;51.948;6.132;2022-09-09T16:14:02;18.60;82.70
48579;DHT22;34357;51.948;6.132;2022-09-09T16:16:29;18.50;82.50
48579;DHT22;34357;51.948;6.132;2022-09-09T16:18:57;18.40;83.10
48579;DHT22;34357;51.948;6.132;2022-09-09T16:21:28;18.40;82.80
48579;DHT22;34357;51.948;6.132;2022-09-09T16:23:55;18.30;82.90
48579;DHT22;34357;51.948;6.132;2022-09-09T16:26:22;18.40;82.20
48579;DHT22;34357;51.948;6.132;2022-09-09T16:28:48;18.30;83.40
48579;DHT22;34357;51.948;6.132;2022-09-09T16:31:17;18.20;82.40
48579;DHT22;34357;51.948;6.132;2022-09-09T16:33:43;18.20;81.60
48579;DHT22;34357;51.948;6.132;2022-09-09T16:36:12;18.20;83.10
48579;DHT22;34357;51.948;6.132;2022-09-09T16:38:39;18.00;84.30
48579;DHT22;34357;51.948;6.132;2022-09-09T16:41:06;17.80;84.70
48579;DHT22;34357;51.948;6.132;2022-09-09T16:43:33;17.50;84.30
48579;DHT22;34357;51.948;6.132;2022-09-09T16:46:00;17.10;85.20
48579;DHT22;34357;51.948;6.132;2022-09-09T16:48:32;16.80;85.70
48579;DHT22;34357;51.948;6.132;2022-09-09T16:51:07;16.50;86.40
48579;DHT22;34357;51.948;6.132;2022-09-09T16:53:36;16.30;86.70
48579;DHT22;34357;51.948;6.132;2022-09-09T16:56:09;16.30;87.50
48579;DHT22;34357;51.948;6.132;2022-09-09T16:58:35;16.30;88.10
48579;DHT22;34357;51.948;6.132;2022-09-09T17:01:01;16.30;88.20
48579;DHT22;34357;51.948;6.132;2022-09-09T17:03:29;16.30;88.60
48579;DHT22;34357;51.948;6.132;2022-09-09T17:05:54;16.40;88.90
48579;DHT22;34357;51.948;6.132;2022-09-09T17:08:20;16.40;89.10
48579;DHT22;34357;51.948;6.132;2022-09-09T17:10:46;16.40;89.20
48579;DHT22;34357;51.948;6.132;2022-09-09T17:13:13;16.40;89.50
48579;DHT22;34357;51.948;6.132;2022-09-09T17:15:40;16.40;89.50
48579;DHT22;34357;51.948;6.132;2022-09-09T17:18:12;16.40;89.70
48579;DHT22;34357;51.948;6.132;2022-09-09T17:20:38;16.50;90.10
48579;DHT22;34357;51.948;6.132;2022-09-09T17:23:05;16.50;90.30
48579;DHT22;34357;51.948;6.132;2022-09-09T17:25:31;16.50;90.30
48579;DHT22;34357;51.948;6.132;2022-09-09T17:27:58;16.50;90.30
48579;DHT22;34357;51.948;6.132;2022-09-09T17:30:23;16.50;90.40